sensor_id;sensor_type;location;lat;lon;timestamp;pressure;altitude;pressure_sealevel;temperature;humidity
77979;BME280;67169;50.268;8.694;2023-04-24T00:02:11;98449.81;;;9.88;84.14
77979;BME280;67169;50.268;8.694;2023-04-24T00:04:38;98454.28;;;9.87;84.16
77979;BME280;67169;50.268;8.694;2023-04-24T00:07:05;98444.66;;;9.83;84.13
77979;BME280;67169;50.268;8.694;2023-04-24T00:09:32;98448.75;;;9.74;84.79
77979;BME280;67169;50.268;8.694;2023-04-24T00:12:00;98447.88;;;9.74;84.76
77979;BME280;67169;50.268;8.694;2023-04-24T00:14:27;98439.38;;;9.66;84.72
77979;BME280;67169;50.268;8.694;2023-04-24T00:16:54;98438.50;;;9.65;84.83
77979;BME280;67169;50.268;8.694;2023-04-24T00:19:20;98440.34;;;9.65;84.99
77979;BME280;67169;50.268;8.694;2023-04-24T00:21:47;98440.34;;;9.65;85.02
77979;BME280;67169;50.268;8.694;2023-04-24T00:24:15;98443.88;;;9.65;85.10
77979;BME280;67169;50.268;8.694;2023-04-24T00:26:42;98444.75;;;9.66;85.07
77979;BME280;67169;50.268;8.694;2023-04-24T00:29:10;98441.19;;;9.65;85.40
77979;BME280;67169;50.268;8.694;2023-04-24T00:31:36;98432.28;;;9.65;85.67
77979;BME280;67169;50.268;8.694;2023-04-24T00:34:03;98433.84;;;9.69;85.54
77979;BME280;67169;50.268;8.694;2023-04-24T00:36:30;98431.00;;;9.72;85.40
77979;BME280;67169;50.268;8.694;2023-04-24T00:38:57;98431.78;;;9.74;85.14
77979;BME280;67169;50.268;8.694;2023-04-24T00:41:24;98429.84;;;9.76;85.26
77979;BME280;67169;50.268;8.694;2023-04-24T00:43:52;98432.19;;;9.82;84.77
77979;BME280;67169;50.268;8.694;2023-04-24T00:46:20;98385.50;;;9.69;84.02
77979;BME280;67169;50.268;8.694;2023-04-24T00:48:47;98429.31;;;10.01;83.44
77979;BME280;67169;50.268;8.694;2023-04-24T00:51:14;98425.44;;;10.07;83.09
77979;BME280;67169;50.268;8.694;2023-04-24T00:53:41;98403.34;;;10.02;82.83
77979;BME280;67169;50.268;8.694;2023-04-24T00:56:07;98410.44;;;10.03;83.46
77979;BME280;67169;50.268;8.694;2023-04-24T00:58:34;98408.88;;;10.14;83.55
77979;BME280;67169;50.268;8.694;2023-04-24T01:01:01;98406.09;;;10.16;83.38
77979;BME280;67169;50.268;8.694;2023-04-24T01:03:33;98407.66;;;10.20;83.06
77979;BME280;67169;50.268;8.694;2023-04-24T01:06:02;98384.78;;;10.13;83.00
77979;BME280;67169;50.268;8.694;2023-04-24T01:08:29;98407.53;;;10.21;83.56
77979;BME280;67169;50.268;8.694;2023-04-24T01:10:57;98406.69;;;10.21;83.48
77979;BME280;67169;50.268;8.694;2023-04-24T01:13:23;98318.13;;;9.73;83.29
77979;BME280;67169;50.268;8.694;2023-04-24T01:15:50;98322.47;;;9.76;83.56
77979;BME280;67169;50.268;8.694;2023-04-24T01:18:17;98394.22;;;10.20;83.31
77979;BME280;67169;50.268;8.694;2023-04-24T01:20:45;98398.72;;;10.19;83.47
77979;BME280;67169;50.268;8.694;2023-04-24T01:23:14;98393.81;;;10.12;83.60
77979;BME280;67169;50.268;8.694;2023-04-24T01:25:41;98389.81;;;10.19;83.22
77979;BME280;67169;50.268;8.694;2023-04-24T01:28:08;98390.75;;;10.18;83.09
77979;BME280;67169;50.268;8.694;2023-04-24T01:30:35;98248.50;;;9.40;82.67
77979;BME280;67169;50.268;8.694;2023-04-24T01:33:02;98392.50;;;10.19;83.18
77979;BME280;67169;50.268;8.694;2023-04-24T01:35:29;98381.75;;;10.19;83.04
77979;BME280;67169;50.268;8.694;2023-04-24T01:37:55;98316.84;;;9.81;82.70
77979;BME280;67169;50.268;8.694;2023-04-24T01:40:23;98396.91;;;10.20;82.88
77979;BME280;67169;50.268;8.694;2023-04-24T01:42:50;98398.97;;;10.15;82.67
77979;BME280;67169;50.268;8.694;2023-04-24T01:45:17;98386.78;;;10.09;82.81
77979;BME280;67169;50.268;8.694;2023-04-24T01:47:43;98387.31;;;10.16;82.62
77979;BME280;67169;50.268;8.694;2023-04-24T01:50:11;98388.22;;;10.15;82.82
77979;BME280;67169;50.268;8.694;2023-04-24T01:52:38;98392.84;;;10.13;82.58
77979;BME280;67169;50.268;8.694;2023-04-24T01:55:06;98398.13;;;10.14;82.88
77979;BME280;67169;50.268;8.694;2023-04-24T01:57:35;98406.28;;;10.13;82.41
77979;BME280;67169;50.268;8.694;2023-04-24T02:00:02;98399.94;;;10.14;82.45
77979;BME280;67169;50.268;8.694;2023-04-24T02:02:31;98391.13;;;10.12;82.64
77979;BME280;67169;50.268;8.694;2023-04-24T02:04:58;98398.41;;;10.10;82.70
77979;BME280;67169;50.268;8.694;2023-04-24T02:07:24;98399.19;;;10.12;82.48
77979;BME280;67169;50.268;8.694;2023-04-24T02:09:51;98391.19;;;10.10;82.62
77979;BME280;67169;50.268;8.694;2023-04-24T02:12:17;98355.72;;;9.89;82.72
77979;BME280;67169;50.268;8.694;2023-04-24T02:14:45;98395.88;;;10.07;83.02
77979;BME280;67169;50.268;8.694;2023-04-24T02:17:12;98392.91;;;10.11;83.40
77979;BME280;67169;50.268;8.694;2023-04-24T02:19:40;98385.06;;;10.08;83.17
77979;BME280;67169;50.268;8.694;2023-04-24T02:22:07;98380.72;;;10.06;83.07
77979;BME280;67169;50.268;8.694;2023-04-24T02:24:33;98311.94;;;9.57;83.06
77979;BME280;67169;50.268;8.694;2023-04-24T02:27:00;98291.94;;;9.47;83.37
77979;BME280;67169;50.268;8.694;2023-04-24T02:29:28;98374.34;;;9.92;82.85
77979;BME280;67169;50.268;8.694;2023-04-24T02:31:56;98374.94;;;9.82;83.76
77979;BME280;67169;50.268;8.694;2023-04-24T02:34:22;98388.78;;;9.90;84.88
77979;BME280;67169;50.268;8.694;2023-04-24T02:36:50;98393.66;;;9.83;84.67
77979;BME280;67169;50.268;8.694;2023-04-24T02:39:16;98395.56;;;9.81;84.90
77979;BME280;67169;50.268;8.694;2023-04-24T02:41:43;98382.31;;;9.78;85.37
77979;BME280;67169;50.268;8.694;2023-04-24T02:44:10;98396.78;;;9.75;85.87
77979;BME280;67169;50.268;8.694;2023-04-24T02:46:37;98397.22;;;9.68;86.84
77979;BME280;67169;50.268;8.694;2023-04-24T02:49:05;98395.84;;;9.61;87.42
77979;BME280;67169;50.268;8.694;2023-04-24T02:51:31;98399.66;;;9.57;87.46
77979;BME280;67169;50.268;8.694;2023-04-24T02:53:58;98393.50;;;9.55;87.67
77979;BME280;67169;50.268;8.694;2023-04-24T02:56:24;98390.88;;;9.53;87.54
77979;BME280;67169;50.268;8.694;2023-04-24T02:58:51;98322.81;;;9.07;87.88
77979;BME280;67169;50.268;8.694;2023-04-24T03:01:17;98383.59;;;9.39;87.61
77979;BME280;67169;50.268;8.694;2023-04-24T03:03:44;98391.75;;;9.54;86.85
77979;BME280;67169;50.268;8.694;2023-04-24T03:06:12;98399.72;;;9.55;86.43
77979;BME280;67169;50.268;8.694;2023-04-24T03:08:38;98395.91;;;9.59;85.83
77979;BME280;67169;50.268;8.694;2023-04-24T03:11:05;98376.16;;;9.44;85.99
77979;BME280;67169;50.268;8.694;2023-04-24T03:13:31;98356.22;;;9.17;85.84
77979;BME280;67169;50.268;8.694;2023-04-24T03:15:58;98411.59;;;9.51;86.40
77979;BME280;67169;50.268;8.694;2023-04-24T03:18:25;98406.28;;;9.49;86.41
77979;BME280;67169;50.268;8.694;2023-04-24T03:20:51;98405.41;;;9.49;86.56
77979;BME280;67169;50.268;8.694;2023-04-24T03:23:19;98405.69;;;9.44;86.77
77979;BME280;67169;50.268;8.694;2023-04-24T03:25:46;98410.25;;;9.42;86.73
77979;BME280;67169;50.268;8.694;2023-04-24T03:28:13;98394.53;;;9.36;86.85
77979;BME280;67169;50.268;8.694;2023-04-24T03:30:40;98410.19;;;9.44;86.80
77979;BME280;67169;50.268;8.694;2023-04-24T03:33:06;98401.13;;;9.46;86.62
77979;BME280;67169;50.268;8.694;2023-04-24T03:35:33;98431.56;;;9.45;86.37
77979;BME280;67169;50.268;8.694;2023-04-24T03:38:00;98422.81;;;9.42;86.41
77979;BME280;67169;50.268;8.694;2023-04-24T03:40:27;98436.94;;;9.45;86.01
77979;BME280;67169;50.268;8.694;2023-04-24T03:42:54;98436.22;;;9.42;85.83
77979;BME280;67169;50.268;8.694;2023-04-24T03:45:21;98436.31;;;9.40;85.22
77979;BME280;67169;50.268;8.694;2023-04-24T03:47:48;98435.38;;;9.41;85.35
77979;BME280;67169;50.268;8.694;2023-04-24T03:50:14;98433.66;;;9.40;83.86
77979;BME280;67169;50.268;8.694;2023-04-24T03:52:41;98442.47;;;9.42;85.29
77979;BME280;67169;50.268;8.694;2023-04-24T03:55:08;98441.75;;;9.39;85.76
77979;BME280;67169;50.268;8.694;2023-04-24T03:57:39;98448.94;;;9.38;86.42
77979;BME280;67169;50.268;8.694;2023-04-24T04:00:07;98448.78;;;9.41;86.72
77979;BME280;67169;50.268;8.694;2023-04-24T04:02:33;98444.72;;;9.34;86.80
77979;BME280;67169;50.268;8.694;2023-04-24T04:05:00;98451.63;;;9.38;86.89
77979;BME280;67169;50.268;8.694;2023-04-24T04:07:27;98459.69;;;9.38;86.75
77979;BME280;67169;50.268;8.694;2023-04-24T04:09:54;98440.47;;;9.30;87.01
77979;BME280;67169;50.268;8.694;2023-04-24T04:12:21;98457.84;;;9.39;87.11
77979;BME280;67169;50.268;8.694;2023-04-24T04:14:49;98452.06;;;9.31;87.02
77979;BME280;67169;50.268;8.694;2023-04-24T04:17:15;98451.09;;;9.32;85.53
77979;BME280;67169;50.268;8.694;2023-04-24T04:19:42;98440.25;;;9.17;84.74
77979;BME280;67169;50.268;8.694;2023-04-24T04:22:08;98346.25;;;8.70;82.72
77979;BME280;67169;50.268;8.694;2023-04-24T04:24:35;98458.59;;;9.25;82.86
77979;BME280;67169;50.268;8.694;2023-04-24T04:27:03;98461.13;;;9.28;83.34
77979;BME280;67169;50.268;8.694;2023-04-24T04:29:30;98405.34;;;8.84;83.84
77979;BME280;67169;50.268;8.694;2023-04-24T04:31:58;98474.41;;;9.14;83.75
77979;BME280;67169;50.268;8.694;2023-04-24T04:34:24;98472.84;;;9.10;83.04
77979;BME280;67169;50.268;8.694;2023-04-24T04:36:51;98471.59;;;8.99;82.34
77979;BME280;67169;50.268;8.694;2023-04-24T04:39:17;98468.13;;;8.97;82.38
77979;BME280;67169;50.268;8.694;2023-04-24T04:41:45;98469.88;;;8.98;81.89
77979;BME280;67169;50.268;8.694;2023-04-24T04:44:14;98454.88;;;8.77;80.09
77979;BME280;67169;50.268;8.694;2023-04-24T04:46:40;98450.22;;;8.80;76.77
77979;BME280;67169;50.268;8.694;2023-04-24T04:49:09;98477.28;;;8.93;77.24
77979;BME280;67169;50.268;8.694;2023-04-24T04:51:36;98479.50;;;8.85;77.49
77979;BME280;67169;50.268;8.694;2023-04-24T04:54:02;98473.97;;;8.88;78.36
77979;BME280;67169;50.268;8.694;2023-04-24T04:56:29;98474.28;;;8.82;79.41
77979;BME280;67169;50.268;8.694;2023-04-24T04:58:55;98492.34;;;8.78;80.04
77979;BME280;67169;50.268;8.694;2023-04-24T05:01:22;98482.94;;;8.70;79.81
77979;BME280;67169;50.268;8.694;2023-04-24T05:03:49;98461.66;;;8.67;79.90
77979;BME280;67169;50.268;8.694;2023-04-24T05:06:17;98497.63;;;8.80;79.24
77979;BME280;67169;50.268;8.694;2023-04-24T05:08:44;98503.78;;;8.82;78.27
77979;BME280;67169;50.268;8.694;2023-04-24T05:11:10;98507.47;;;8.79;76.61
77979;BME280;67169;50.268;8.694;2023-04-24T05:13:36;98502.81;;;8.83;75.86
77979;BME280;67169;50.268;8.694;2023-04-24T05:16:03;98512.53;;;8.86;74.89
77979;BME280;67169;50.268;8.694;2023-04-24T05:18:30;98509.75;;;8.87;74.11
77979;BME280;67169;50.268;8.694;2023-04-24T05:20:56;98513.25;;;8.89;74.05
77979;BME280;67169;50.268;8.694;2023-04-24T05:23:24;98512.44;;;8.87;74.50
77979;BME280;67169;50.268;8.694;2023-04-24T05:25:51;98515.91;;;8.89;72.38
77979;BME280;67169;50.268;8.694;2023-04-24T05:28:18;98520.47;;;8.87;70.38
77979;BME280;67169;50.268;8.694;2023-04-24T05:30:45;98528.38;;;8.90;70.62
77979;BME280;67169;50.268;8.694;2023-04-24T05:33:11;98521.03;;;8.94;71.22
77979;BME280;67169;50.268;8.694;2023-04-24T05:35:40;98524.13;;;9.03;69.81
77979;BME280;67169;50.268;8.694;2023-04-24T05:38:11;98526.25;;;8.97;69.47
77979;BME280;67169;50.268;8.694;2023-04-24T05:40:38;98539.25;;;9.04;68.51
77979;BME280;67169;50.268;8.694;2023-04-24T05:43:05;98541.88;;;9.06;68.51
77979;BME280;67169;50.268;8.694;2023-04-24T05:45:32;98546.13;;;9.10;67.04
77979;BME280;67169;50.268;8.694;2023-04-24T05:48:01;98540.44;;;9.16;67.38
77979;BME280;67169;50.268;8.694;2023-04-24T05:50:27;98537.38;;;9.24;66.56
77979;BME280;67169;50.268;8.694;2023-04-24T05:52:54;98542.25;;;9.33;66.20
77979;BME280;67169;50.268;8.694;2023-04-24T05:55:23;98549.34;;;9.34;65.63
77979;BME280;67169;50.268;8.694;2023-04-24T05:57:51;98551.72;;;9.40;64.62
77979;BME280;67169;50.268;8.694;2023-04-24T06:00:18;98557.16;;;9.39;67.75
77979;BME280;67169;50.268;8.694;2023-04-24T06:02:45;98559.81;;;9.39;68.90
77979;BME280;67169;50.268;8.694;2023-04-24T06:05:12;98558.34;;;9.33;69.90
77979;BME280;67169;50.268;8.694;2023-04-24T06:07:39;98562.44;;;9.40;70.48
77979;BME280;67169;50.268;8.694;2023-04-24T06:10:06;98558.09;;;9.38;70.59
77979;BME280;67169;50.268;8.694;2023-04-24T06:12:32;98572.94;;;9.27;71.27
77979;BME280;67169;50.268;8.694;2023-04-24T06:15:00;98568.19;;;8.98;70.22
77979;BME280;67169;50.268;8.694;2023-04-24T06:17:27;98571.13;;;8.93;70.78
77979;BME280;67169;50.268;8.694;2023-04-24T06:19:53;98584.53;;;8.93;70.96
77979;BME280;67169;50.268;8.694;2023-04-24T06:22:20;98588.16;;;8.92;71.78
77979;BME280;67169;50.268;8.694;2023-04-24T06:24:46;98593.53;;;8.92;71.77
77979;BME280;67169;50.268;8.694;2023-04-24T06:27:13;98574.97;;;8.88;71.20
77979;BME280;67169;50.268;8.694;2023-04-24T06:29:40;98475.16;;;8.29;70.68
77979;BME280;67169;50.268;8.694;2023-04-24T06:32:08;98598.59;;;8.98;70.51
77979;BME280;67169;50.268;8.694;2023-04-24T06:34:34;98588.19;;;9.10;71.46
77979;BME280;67169;50.268;8.694;2023-04-24T06:37:02;98573.50;;;8.99;69.28
77979;BME280;67169;50.268;8.694;2023-04-24T06:39:28;98590.56;;;9.16;68.37
77979;BME280;67169;50.268;8.694;2023-04-24T06:41:55;98590.72;;;9.30;68.88
77979;BME280;67169;50.268;8.694;2023-04-24T06:44:21;98587.38;;;9.42;67.02
77979;BME280;67169;50.268;8.694;2023-04-24T06:46:48;98577.13;;;9.33;66.11
77979;BME280;67169;50.268;8.694;2023-04-24T06:49:16;98564.03;;;9.27;66.52
77979;BME280;67169;50.268;8.694;2023-04-24T06:51:43;98574.44;;;9.33;67.28
77979;BME280;67169;50.268;8.694;2023-04-24T06:54:09;98586.06;;;9.34;66.75
77979;BME280;67169;50.268;8.694;2023-04-24T06:56:36;98574.59;;;9.47;67.66
77979;BME280;67169;50.268;8.694;2023-04-24T06:59:03;98572.84;;;9.64;67.10
77979;BME280;67169;50.268;8.694;2023-04-24T07:01:29;98577.88;;;9.52;66.86
77979;BME280;67169;50.268;8.694;2023-04-24T07:03:56;98571.03;;;9.47;66.66
77979;BME280;67169;50.268;8.694;2023-04-24T07:06:24;98577.56;;;9.59;66.34
77979;BME280;67169;50.268;8.694;2023-04-24T07:08:52;98552.44;;;9.60;66.97
77979;BME280;67169;50.268;8.694;2023-04-24T07:11:19;98575.88;;;9.73;67.13
77979;BME280;67169;50.268;8.694;2023-04-24T07:13:46;98561.84;;;9.68;65.44
77979;BME280;67169;50.268;8.694;2023-04-24T07:16:13;98571.84;;;9.82;65.37
77979;BME280;67169;50.268;8.694;2023-04-24T07:18:39;98577.47;;;9.93;65.99
77979;BME280;67169;50.268;8.694;2023-04-24T07:21:06;98568.50;;;10.10;64.18
77979;BME280;67169;50.268;8.694;2023-04-24T07:23:34;98575.38;;;10.16;63.87
77979;BME280;67169;50.268;8.694;2023-04-24T07:26:01;98574.06;;;10.23;63.29
77979;BME280;67169;50.268;8.694;2023-04-24T07:28:27;98564.41;;;10.36;64.22
77979;BME280;67169;50.268;8.694;2023-04-24T07:30:56;98573.06;;;10.41;63.35
77979;BME280;67169;50.268;8.694;2023-04-24T07:33:25;98555.44;;;10.20;62.95
77979;BME280;67169;50.268;8.694;2023-04-24T07:35:51;98568.03;;;10.35;62.71
77979;BME280;67169;50.268;8.694;2023-04-24T07:38:18;98562.06;;;10.46;63.18
77979;BME280;67169;50.268;8.694;2023-04-24T07:40:48;98555.28;;;10.55;62.50
77979;BME280;67169;50.268;8.694;2023-04-24T07:43:15;98567.25;;;10.33;61.75
77979;BME280;67169;50.268;8.694;2023-04-24T07:45:44;98560.13;;;10.48;61.27
77979;BME280;67169;50.268;8.694;2023-04-24T07:48:11;98567.66;;;10.73;62.88
77979;BME280;67169;50.268;8.694;2023-04-24T07:50:40;98541.09;;;10.83;62.35
77979;BME280;67169;50.268;8.694;2023-04-24T07:53:06;98560.84;;;10.98;63.39
77979;BME280;67169;50.268;8.694;2023-04-24T07:55:33;98574.41;;;10.80;61.53
77979;BME280;67169;50.268;8.694;2023-04-24T07:58:01;98565.81;;;10.89;62.75
77979;BME280;67169;50.268;8.694;2023-04-24T08:00:27;98566.44;;;10.95;62.27
77979;BME280;67169;50.268;8.694;2023-04-24T08:02:54;98562.41;;;11.02;61.05
77979;BME280;67169;50.268;8.694;2023-04-24T08:05:21;98575.81;;;11.17;59.72
77979;BME280;67169;50.268;8.694;2023-04-24T08:07:47;98569.56;;;11.17;60.56
77979;BME280;67169;50.268;8.694;2023-04-24T08:10:15;98586.69;;;11.16;61.01
77979;BME280;67169;50.268;8.694;2023-04-24T08:12:42;98582.19;;;11.01;59.72
77979;BME280;67169;50.268;8.694;2023-04-24T08:15:10;98601.56;;;11.22;60.19
77979;BME280;67169;50.268;8.694;2023-04-24T08:17:37;98609.72;;;11.36;59.53
77979;BME280;67169;50.268;8.694;2023-04-24T08:20:04;98608.50;;;11.56;59.70
77979;BME280;67169;50.268;8.694;2023-04-24T08:22:35;98602.34;;;11.54;58.58
77979;BME280;67169;50.268;8.694;2023-04-24T08:25:02;98611.34;;;11.38;59.15
77979;BME280;67169;50.268;8.694;2023-04-24T08:27:28;98602.25;;;11.70;58.33
77979;BME280;67169;50.268;8.694;2023-04-24T08:29:55;98603.88;;;11.88;57.32
77979;BME280;67169;50.268;8.694;2023-04-24T08:32:23;98595.41;;;12.23;57.44
77979;BME280;67169;50.268;8.694;2023-04-24T08:34:49;98609.94;;;12.06;56.63
77979;BME280;67169;50.268;8.694;2023-04-24T08:37:17;98589.91;;;12.24;56.79
77979;BME280;67169;50.268;8.694;2023-04-24T08:39:44;98598.75;;;12.41;54.41
77979;BME280;67169;50.268;8.694;2023-04-24T08:42:12;98628.44;;;12.12;55.36
77979;BME280;67169;50.268;8.694;2023-04-24T08:44:40;98624.47;;;12.18;55.38
77979;BME280;67169;50.268;8.694;2023-04-24T08:47:07;98629.06;;;11.87;56.35
77979;BME280;67169;50.268;8.694;2023-04-24T08:49:36;98620.22;;;11.55;57.40
77979;BME280;67169;50.268;8.694;2023-04-24T08:52:04;98632.19;;;11.35;56.86
77979;BME280;67169;50.268;8.694;2023-04-24T08:54:31;98627.81;;;11.18;58.05
77979;BME280;67169;50.268;8.694;2023-04-24T08:57:00;98632.16;;;11.21;58.44
77979;BME280;67169;50.268;8.694;2023-04-24T08:59:28;98638.94;;;11.12;58.59
77979;BME280;67169;50.268;8.694;2023-04-24T09:01:56;98647.94;;;11.11;58.58
77979;BME280;67169;50.268;8.694;2023-04-24T09:04:23;98646.06;;;11.13;58.46
77979;BME280;67169;50.268;8.694;2023-04-24T09:06:55;98647.59;;;11.17;58.63
77979;BME280;67169;50.268;8.694;2023-04-24T09:09:23;98655.63;;;11.03;59.03
77979;BME280;67169;50.268;8.694;2023-04-24T09:11:50;98653.25;;;11.12;58.66
77979;BME280;67169;50.268;8.694;2023-04-24T09:14:18;98665.06;;;11.10;58.74
77979;BME280;67169;50.268;8.694;2023-04-24T09:16:45;98664.09;;;11.11;58.58
77979;BME280;67169;50.268;8.694;2023-04-24T09:19:12;98658.19;;;11.20;59.30
77979;BME280;67169;50.268;8.694;2023-04-24T09:21:39;98657.69;;;11.13;59.31
77979;BME280;67169;50.268;8.694;2023-04-24T09:24:16;98628.41;;;10.77;57.95
77979;BME280;67169;50.268;8.694;2023-04-24T09:26:44;98663.28;;;10.95;59.58
77979;BME280;67169;50.268;8.694;2023-04-24T09:29:14;98664.81;;;10.99;59.66
77979;BME280;67169;50.268;8.694;2023-04-24T09:31:42;98680.41;;;11.08;60.50
77979;BME280;67169;50.268;8.694;2023-04-24T09:34:09;98619.88;;;10.69;60.52
77979;BME280;67169;50.268;8.694;2023-04-24T09:36:38;98663.06;;;11.13;61.12
77979;BME280;67169;50.268;8.694;2023-04-24T09:39:10;98677.72;;;11.08;60.87
77979;BME280;67169;50.268;8.694;2023-04-24T09:41:44;98692.75;;;10.96;61.69
77979;BME280;67169;50.268;8.694;2023-04-24T09:44:12;98687.56;;;10.93;62.44
77979;BME280;67169;50.268;8.694;2023-04-24T09:46:40;98703.63;;;10.95;62.73
77979;BME280;67169;50.268;8.694;2023-04-24T09:49:08;98696.75;;;10.73;61.99
77979;BME280;67169;50.268;8.694;2023-04-24T09:51:37;98703.94;;;10.73;62.59
77979;BME280;67169;50.268;8.694;2023-04-24T09:54:04;98706.09;;;10.66;62.18
77979;BME280;67169;50.268;8.694;2023-04-24T09:56:42;98712.59;;;10.62;62.94
77979;BME280;67169;50.268;8.694;2023-04-24T09:59:09;98713.31;;;10.65;63.20
77979;BME280;67169;50.268;8.694;2023-04-24T10:01:36;98718.41;;;10.70;61.72
77979;BME280;67169;50.268;8.694;2023-04-24T10:04:03;98691.19;;;10.60;62.01
77979;BME280;67169;50.268;8.694;2023-04-24T10:06:33;98711.06;;;10.89;61.32
77979;BME280;67169;50.268;8.694;2023-04-24T10:09:00;98714.53;;;11.07;61.41
77979;BME280;67169;50.268;8.694;2023-04-24T10:11:27;98706.97;;;11.30;60.30
77979;BME280;67169;50.268;8.694;2023-04-24T10:13:55;98715.16;;;11.58;61.24
77979;BME280;67169;50.268;8.694;2023-04-24T10:16:22;98723.72;;;11.35;61.41
77979;BME280;67169;50.268;8.694;2023-04-24T10:18:49;98728.69;;;10.95;64.99
77979;BME280;67169;50.268;8.694;2023-04-24T10:21:16;98725.16;;;10.95;68.87
77979;BME280;67169;50.268;8.694;2023-04-24T10:23:43;98713.25;;;10.99;68.37
77979;BME280;67169;50.268;8.694;2023-04-24T10:26:12;98741.22;;;11.12;68.91
77979;BME280;67169;50.268;8.694;2023-04-24T10:28:44;98745.28;;;11.19;67.62
77979;BME280;67169;50.268;8.694;2023-04-24T10:31:13;98764.72;;;10.92;68.12
77979;BME280;67169;50.268;8.694;2023-04-24T10:33:41;98753.91;;;10.77;71.32
77979;BME280;67169;50.268;8.694;2023-04-24T10:36:09;98766.53;;;10.43;71.25
77979;BME280;67169;50.268;8.694;2023-04-24T10:38:37;98760.50;;;10.38;72.94
77979;BME280;67169;50.268;8.694;2023-04-24T10:41:08;98754.13;;;10.89;70.81
77979;BME280;67169;50.268;8.694;2023-04-24T10:43:39;98753.06;;;11.08;67.97
77979;BME280;67169;50.268;8.694;2023-04-24T10:46:06;98763.41;;;11.31;68.41
77979;BME280;67169;50.268;8.694;2023-04-24T10:48:35;98774.34;;;11.28;67.64
77979;BME280;67169;50.268;8.694;2023-04-24T10:51:02;98768.13;;;11.12;69.50
77979;BME280;67169;50.268;8.694;2023-04-24T10:53:30;98767.06;;;10.99;67.75
77979;BME280;67169;50.268;8.694;2023-04-24T10:55:59;98782.56;;;10.93;65.50
77979;BME280;67169;50.268;8.694;2023-04-24T10:58:36;98758.56;;;11.22;65.59
77979;BME280;67169;50.268;8.694;2023-04-24T11:01:03;98763.00;;;11.69;64.78
77979;BME280;67169;50.268;8.694;2023-04-24T11:03:31;98764.41;;;12.65;65.61
77979;BME280;67169;50.268;8.694;2023-04-24T11:06:01;98755.03;;;13.55;63.09
77979;BME280;67169;50.268;8.694;2023-04-24T11:08:30;98757.03;;;13.24;58.35
77979;BME280;67169;50.268;8.694;2023-04-24T11:11:00;98767.09;;;12.79;60.07
77979;BME280;67169;50.268;8.694;2023-04-24T11:14:03;98767.69;;;12.56;61.54
77979;BME280;67169;50.268;8.694;2023-04-24T11:16:33;98784.44;;;13.18;61.68
77979;BME280;67169;50.268;8.694;2023-04-24T11:19:01;98777.69;;;12.82;60.57
77979;BME280;67169;50.268;8.694;2023-04-24T11:21:38;98785.78;;;12.68;61.66
77979;BME280;67169;50.268;8.694;2023-04-24T11:24:26;98793.59;;;12.14;65.88
77979;BME280;67169;50.268;8.694;2023-04-24T11:26:54;98798.63;;;11.90;68.74
77979;BME280;67169;50.268;8.694;2023-04-24T11:29:22;98794.16;;;11.27;68.04
77979;BME280;67169;50.268;8.694;2023-04-24T11:31:48;98800.94;;;11.50;67.01
77979;BME280;67169;50.268;8.694;2023-04-24T11:34:17;98798.78;;;12.03;67.75
77979;BME280;67169;50.268;8.694;2023-04-24T11:36:46;98795.78;;;12.07;62.12
77979;BME280;67169;50.268;8.694;2023-04-24T11:39:13;98799.97;;;12.13;61.32
77979;BME280;67169;50.268;8.694;2023-04-24T11:41:39;98806.72;;;12.20;62.67
77979;BME280;67169;50.268;8.694;2023-04-24T11:44:08;98818.28;;;12.22;60.36
77979;BME280;67169;50.268;8.694;2023-04-24T11:46:35;98819.66;;;12.29;61.01
77979;BME280;67169;50.268;8.694;2023-04-24T11:49:03;98816.75;;;12.18;60.12
77979;BME280;67169;50.268;8.694;2023-04-24T11:51:30;98819.38;;;12.04;64.28
77979;BME280;67169;50.268;8.694;2023-04-24T11:53:58;98825.13;;;11.66;63.24
77979;BME280;67169;50.268;8.694;2023-04-24T11:56:25;98835.47;;;11.42;65.03
77979;BME280;67169;50.268;8.694;2023-04-24T11:58:52;98834.69;;;11.56;66.14
77979;BME280;67169;50.268;8.694;2023-04-24T12:01:19;98828.38;;;11.57;63.64
77979;BME280;67169;50.268;8.694;2023-04-24T12:03:48;98824.34;;;11.96;62.01
77979;BME280;67169;50.268;8.694;2023-04-24T12:06:16;98812.88;;;12.08;61.38
77979;BME280;67169;50.268;8.694;2023-04-24T12:08:45;98819.03;;;12.24;60.94
77979;BME280;67169;50.268;8.694;2023-04-24T12:11:15;98818.28;;;12.67;59.67
77979;BME280;67169;50.268;8.694;2023-04-24T12:13:43;98819.31;;;13.07;56.60
77979;BME280;67169;50.268;8.694;2023-04-24T12:16:10;98818.28;;;13.10;57.71
77979;BME280;67169;50.268;8.694;2023-04-24T12:18:41;98816.25;;;13.13;57.75
77979;BME280;67169;50.268;8.694;2023-04-24T12:21:18;98812.22;;;13.62;55.90
77979;BME280;67169;50.268;8.694;2023-04-24T12:23:46;98783.56;;;13.59;55.24
77979;BME280;67169;50.268;8.694;2023-04-24T12:26:17;98797.38;;;14.09;51.62
77979;BME280;67169;50.268;8.694;2023-04-24T12:28:47;98799.41;;;14.96;49.26
77979;BME280;67169;50.268;8.694;2023-04-24T12:31:15;98818.94;;;14.63;49.29
77979;BME280;67169;50.268;8.694;2023-04-24T12:33:42;98806.34;;;15.00;51.11
77979;BME280;67169;50.268;8.694;2023-04-24T12:36:09;98810.03;;;14.86;49.54
77979;BME280;67169;50.268;8.694;2023-04-24T12:38:37;98819.25;;;14.31;53.68
77979;BME280;67169;50.268;8.694;2023-04-24T12:41:07;98810.91;;;14.61;49.20
77979;BME280;67169;50.268;8.694;2023-04-24T12:43:36;98800.75;;;14.78;50.81
77979;BME280;67169;50.268;8.694;2023-04-24T12:46:03;98807.81;;;14.40;51.91
77979;BME280;67169;50.268;8.694;2023-04-24T12:48:30;98820.00;;;14.20;49.47
77979;BME280;67169;50.268;8.694;2023-04-24T12:50:57;98816.56;;;13.64;49.41
77979;BME280;67169;50.268;8.694;2023-04-24T12:53:26;98838.41;;;12.75;54.81
77979;BME280;67169;50.268;8.694;2023-04-24T12:55:54;98853.69;;;12.16;58.50
77979;BME280;67169;50.268;8.694;2023-04-24T12:58:21;98836.38;;;11.43;61.94
77979;BME280;67169;50.268;8.694;2023-04-24T13:00:49;98875.88;;;10.93;65.84
77979;BME280;67169;50.268;8.694;2023-04-24T13:03:16;98870.13;;;11.16;66.91
77979;BME280;67169;50.268;8.694;2023-04-24T13:05:43;98882.28;;;10.90;67.12
77979;BME280;67169;50.268;8.694;2023-04-24T13:08:09;98873.38;;;10.73;67.69